Time;durP1;ratioP1;P1;durP2;ratioP2;P2;SDS_P1;SDS_P2;PMS_P1;PMS_P2;Temp;Humidity;BMP_temperature;BMP_pressure;BME280_temperature;BME280_humidity;BME280_pressure;Samples;Min_cycle;Max_cycle;Signal;HPM_P1;HPM_P2
2022/09/28 00:00:40;;;;;;;0.10;0.10;;;;;;;11.13;69.78;99677.91;5048533;28;20490;-78
2022/09/28 00:03:08;;;;;;;0.20;0.20;;;;;;;11.11;69.51;99677.94;5049712;28;20021;-78
2022/09/28 00:05:34;;;;;;;0.10;0.10;;;;;;;11.10;69.81;99680.66;5048542;28;20021;-79
2022/09/28 00:08:00;;;;;;;0.20;0.20;;;;;;;11.08;69.64;99682.50;5047475;28;20033;-78
2022/09/28 00:10:26;;;;;;;0.10;0.10;;;;;;;11.07;69.64;99684.31;5032827;28;20084;-79
2022/09/28 00:12:54;;;;;;;0.10;0.10;;;;;;;11.08;69.92;99682.50;5036764;28;20029;-78
2022/09/28 00:15:21;;;;;;;0.10;0.10;;;;;;;11.07;69.96;99678.16;5036272;28;20025;-78
2022/09/28 00:17:47;;;;;;;0.10;0.10;;;;;;;11.06;69.80;99687.88;5038108;28;20033;-78
2022/09/28 00:24:11;;;;;;;0.13;0.13;;;;;;;11.10;69.89;99681.56;5035091;28;20501;-78
2022/09/28 00:26:29;;;;;;;0.10;0.10;;;;;;;11.09;69.79;99681.59;5033503;28;20048;-78
2022/09/28 00:28:57;;;;;;;0.20;0.20;;;;;;;11.07;70.18;99684.31;5033815;28;20032;-78
2022/09/28 00:31:26;;;;;;;0.13;0.13;;;;;;;11.04;70.06;99687.09;5037133;28;20448;-78
2022/09/28 00:33:57;;;;;;;0.10;0.10;;;;;;;11.06;70.25;99684.38;5035407;28;20103;-78
2022/09/28 00:36:25;;;;;;;0.10;0.10;;;;;;;11.02;69.85;99683.66;5034709;28;20041;-78
2022/09/28 00:38:52;;;;;;;0.10;0.10;;;;;;;11.03;69.93;99695.09;5034232;28;20032;-78
2022/09/28 00:41:18;;;;;;;0.10;0.10;;;;;;;11.03;69.98;99688.03;5038032;28;20025;-78
2022/09/28 00:43:44;;;;;;;0.20;0.20;;;;;;;11.06;69.85;99692.34;5036961;28;20029;-79
2022/09/28 00:48:57;;;;;;;0.15;0.15;;;;;;;11.13;70.23;99693.81;5061713;28;20414;-78
2022/09/28 00:51:25;;;;;;;0.10;0.10;;;;;;;11.15;70.43;99684.00;5062759;28;20618;-78
2022/09/28 00:53:53;;;;;;;0.10;0.10;;;;;;;11.16;70.52;99685.72;5046965;28;20139;-78
2022/09/28 00:56:23;;;;;;;0.10;0.10;;;;;;;11.13;70.98;99673.47;5052086;28;20062;-78
2022/09/28 00:58:53;;;;;;;0.10;0.10;;;;;;;11.14;70.92;99666.34;5051502;28;20021;-78
2022/09/28 01:01:19;;;;;;;0.10;0.10;;;;;;;11.15;70.39;99678.69;5050729;28;20036;-78
2022/09/28 01:03:47;;;;;;;0.20;0.20;;;;;;;11.16;71.06;99664.50;5048716;28;20377;-78
2022/09/28 01:06:26;;;;;;;0.10;0.10;;;;;;;11.25;70.46;99676.53;5048227;28;20030;-78
2022/09/28 01:08:54;;;;;;;0.10;0.10;;;;;;;11.19;70.77;99668.81;5051192;28;20489;-78
2022/09/28 01:11:21;;;;;;;0.10;0.10;;;;;;;11.17;71.16;99666.25;5052801;28;20021;-78
2022/09/28 01:13:50;;;;;;;0.40;0.40;;;;;;;11.22;70.79;99664.25;5048280;28;20072;-78
2022/09/28 01:16:33;;;;;;;0.10;0.10;;;;;;;11.24;70.49;99667.72;5051795;28;20021;-79
2022/09/28 01:19:27;;;;;;;0.10;0.10;;;;;;;11.22;70.90;99666.91;5047604;28;20029;-78
2022/09/28 01:22:19;;;;;;;0.10;0.10;;;;;;;11.15;71.03;99668.09;5047815;28;20094;-78
2022/09/28 01:24:54;;;;;;;0.10;0.10;;;;;;;11.13;70.78;99670.81;5051611;28;20519;-78
2022/09/28 01:27:34;;;;;;;0.10;0.10;;;;;;;11.17;71.18;99671.53;5053673;28;20033;-78
2022/09/28 01:32:54;;;;;;;0.65;0.65;;;;;;;11.19;70.85;99664.41;5140679;27;20356;-79
2022/09/28 01:38:05;;;;;;;0.10;0.10;;;;;;;11.13;71.27;99669.97;5067798;28;20398;-78
2022/09/28 01:40:33;;;;;;;0.10;0.10;;;;;;;11.10;70.95;99675.38;5049443;28;20048;-78
2022/09/28 01:43:07;;;;;;;0.10;0.10;;;;;;;11.14;70.85;99680.50;5049544;28;20045;-78
2022/09/28 01:45:44;;;;;;;0.10;0.10;;;;;;;11.17;71.03;99676.84;5053141;28;20100;-78
2022/09/28 01:48:22;;;;;;;0.20;0.20;;;;;;;11.17;71.21;99682.16;5048345;28;20079;-79
2022/09/28 01:50:54;;;;;;;0.10;0.10;;;;;;;11.19;71.10;99688.25;5047313;28;20033;-79
2022/09/28 01:53:44;;;;;;;0.10;0.10;;;;;;;11.30;71.16;99690.44;5046770;28;20022;-78
2022/09/28 01:56:18;;;;;;;0.10;0.10;;;;;;;11.27;71.20;99686.13;5049129;28;20388;-78
2022/09/28 01:58:52;;;;;;;0.10;0.10;;;;;;;11.33;71.02;99699.16;5050538;28;20029;-78
2022/09/28 02:01:42;;;;;;;0.10;0.10;;;;;;;11.40;71.08;99690.94;5050411;28;20220;-78
2022/09/28 02:04:17;;;;;;;0.10;0.10;;;;;;;11.43;70.75;99686.38;5049164;28;20025;-78
2022/09/28 02:06:52;;;;;;;0.13;0.13;;;;;;;11.46;70.58;99683.59;5047742;28;20017;-78
2022/09/28 02:09:30;;;;;;;0.30;0.30;;;;;;;11.51;71.18;99688.69;5050513;28;20025;-78
2022/09/28 02:12:06;;;;;;;0.10;0.10;;;;;;;11.53;70.64;99681.53;5050214;28;20060;-78
2022/09/28 02:14:36;;;;;;;0.10;0.10;;;;;;;11.56;70.77;99684.03;5051939;28;20039;-78
2022/09/28 02:17:03;;;;;;;0.10;0.10;;;;;;;11.54;70.56;99687.69;5051696;28;20025;-78
2022/09/28 02:19:31;;;;;;;0.10;0.10;;;;;;;11.59;70.51;99683.94;5050704;28;20026;-78
2022/09/28 02:24:50;;;;;;;0.10;0.10;;;;;;;11.59;70.79;99683.94;5102286;27;20385;-78
2022/09/28 02:27:33;;;;;;;0.10;0.10;;;;;;;11.62;70.78;99683.78;5093484;28;20399;-79
2022/09/28 02:29:59;;;;;;;;;;;;;;;11.79;70.12;99682.22;5087892;28;20024;-78
2022/09/28 02:32:30;;;;;;;0.10;0.10;;;;;;;11.61;70.95;99676.78;5092626;28;19912;-78
2022/09/28 02:34:57;;;;;;;0.10;0.10;;;;;;;11.59;70.49;99686.59;5090126;28;20066;-78
2022/09/28 02:37:23;;;;;;;0.10;0.10;;;;;;;11.56;70.86;99681.41;5089560;28;20129;-78
2022/09/28 02:39:49;;;;;;;0.10;0.10;;;;;;;11.54;71.08;99677.97;5089335;28;20036;-78
2022/09/28 02:42:43;;;;;;;0.10;0.10;;;;;;;11.59;70.71;99670.66;5091979;28;20060;-79
2022/09/28 02:48:46;;;;;;;0.10;0.10;;;;;;;11.56;70.80;99684.03;5068115;28;20760;-78
2022/09/28 02:51:27;;;;;;;0.10;0.10;;;;;;;11.54;70.84;99680.63;5060472;28;20036;-78
2022/09/28 02:54:13;;;;;;;0.10;0.10;;;;;;;11.51;71.05;99683.38;5052668;28;20484;-79
2022/09/28 02:57:09;;;;;;;0.10;0.10;;;;;;;11.55;71.59;99686.78;5049397;28;20021;-79
2022/09/28 02:59:45;;;;;;;0.10;0.10;;;;;;;11.53;70.81;99686.84;5047879;28;20108;-78
2022/09/28 03:07:39;;;;;;;0.10;0.10;;;;;;;11.53;70.93;99686.00;5054417;28;21127;-79
2022/09/28 03:10:12;;;;;;;;;;;;;;;11.65;70.17;99675.72;5046591;28;20562;-78
2022/09/28 03:12:40;;;;;;;0.10;0.10;;;;;;;11.53;70.66;99672.72;5042975;28;19909;-78
2022/09/28 03:17:44;;;;;;;0.10;0.10;;;;;;;11.49;71.37;99683.47;5109388;27;20379;-78
2022/09/28 03:20:10;;;;;;;0.15;0.15;;;;;;;11.47;71.02;99677.34;5105573;28;20039;-78
2022/09/28 03:22:37;;;;;;;0.10;0.10;;;;;;;11.45;70.59;99687.19;5098421;28;20028;-79
2022/09/28 03:25:04;;;;;;;0.10;0.10;;;;;;;11.44;71.08;99700.47;5085587;28;20034;-78
2022/09/28 03:27:30;;;;;;;0.20;0.20;;;;;;;11.44;71.23;99706.66;5094012;28;20024;-78
2022/09/28 03:29:56;;;;;;;0.10;0.10;;;;;;;11.46;71.23;99706.59;5096327;28;20038;-78
2022/09/28 03:32:22;;;;;;;0.10;0.10;;;;;;;11.45;71.35;99700.44;5102091;28;20036;-78
2022/09/28 03:34:48;;;;;;;0.10;0.10;;;;;;;11.48;70.88;99699.44;5095461;28;20074;-78
2022/09/28 03:37:15;;;;;;;0.10;0.10;;;;;;;11.46;70.88;99695.97;5097851;28;20464;-78
2022/09/28 03:39:41;;;;;;;0.10;0.10;;;;;;;11.47;71.15;99690.59;5101937;28;20110;-78
2022/09/28 03:42:07;;;;;;;0.10;0.10;;;;;;;11.50;71.17;99684.31;5100371;28;20480;-78
2022/09/28 03:44:33;;;;;;;0.10;0.10;;;;;;;11.53;71.03;99691.31;5093815;28;20039;-78
2022/09/28 03:46:59;;;;;;;0.13;0.13;;;;;;;11.55;71.10;99690.31;5098962;28;20073;-79
2022/09/28 03:49:25;;;;;;;0.20;0.20;;;;;;;11.54;70.83;99685.91;5098500;28;20060;-78
2022/09/28 03:51:51;;;;;;;0.10;0.10;;;;;;;11.55;71.11;99679.69;5101539;28;20043;-79
2022/09/28 03:54:17;;;;;;;0.10;0.10;;;;;;;11.55;71.09;99679.69;5097421;28;20077;-78
2022/09/28 03:56:44;;;;;;;0.13;0.13;;;;;;;11.55;71.10;99682.34;5100121;28;20108;-78
2022/09/28 03:59:10;;;;;;;0.15;0.15;;;;;;;11.53;71.26;99678.03;5089779;28;20141;-78
2022/09/28 04:01:36;;;;;;;0.10;0.10;;;;;;;11.52;70.72;99682.47;5106167;28;20036;-78
2022/09/28 04:04:02;;;;;;;0.10;0.10;;;;;;;11.50;70.88;99684.31;5102913;28;20395;-78
2022/09/28 04:06:28;;;;;;;0.10;0.10;;;;;;;11.43;71.07;99683.72;5103033;28;20020;-78
2022/09/28 04:08:54;;;;;;;0.10;0.10;;;;;;;11.31;71.65;99682.47;5091386;28;20035;-78
2022/09/28 04:11:20;;;;;;;0.10;0.10;;;;;;;11.28;71.17;99687.03;5090753;28;20024;-78
2022/09/28 04:13:48;;;;;;;0.13;0.13;;;;;;;11.25;71.00;99677.41;5103993;28;20028;-78
2022/09/28 04:16:14;;;;;;;0.10;0.10;;;;;;;11.24;71.23;99678.31;5099233;28;20475;-78
2022/09/28 04:18:41;;;;;;;0.10;0.10;;;;;;;11.24;71.23;99670.38;5091619;28;20415;-78
2022/09/28 04:21:11;;;;;;;0.10;0.10;;;;;;;11.25;70.75;99677.41;5098112;28;20496;-78
2022/09/28 04:23:39;;;;;;;0.10;0.10;;;;;;;11.19;70.81;99680.31;5097786;28;20039;-78
2022/09/28 04:26:15;;;;;;;0.20;0.20;;;;;;;11.13;70.76;99686.72;5100676;28;20028;-78
2022/09/28 04:31:28;;;;;;;0.10;0.10;;;;;;;11.05;70.86;99682.66;5080582;28;20456;-78
2022/09/28 04:33:56;;;;;;;0.10;0.10;;;;;;;11.00;70.98;99691.66;5074778;28;20032;-78
2022/09/28 04:36:23;;;;;;;0.10;0.10;;;;;;;11.00;70.75;99690.78;5088451;28;20028;-78
2022/09/28 04:38:51;;;;;;;0.20;0.20;;;;;;;10.95;71.17;99693.63;5086298;28;20166;-78
2022/09/28 04:41:17;;;;;;;0.10;0.10;;;;;;;10.94;70.58;99689.25;5085064;28;20035;-78
2022/09/28 04:43:46;;;;;;;0.20;0.20;;;;;;;10.93;70.88;99690.19;5074937;28;20435;-79
2022/09/28 04:46:13;;;;;;;0.10;0.10;;;;;;;10.93;70.62;99695.47;5075039;28;20032;-78
2022/09/28 04:48:39;;;;;;;0.10;0.10;;;;;;;10.95;71.02;99698.06;5086667;28;20529;-78
2022/09/28 04:51:05;;;;;;;0.10;0.10;;;;;;;10.94;71.29;99689.25;5090518;28;20028;-79
2022/09/28 04:53:31;;;;;;;0.10;0.10;;;;;;;10.96;70.88;99691.84;5080718;28;20742;-78
2022/09/28 04:56:04;;;;;;;0.10;0.10;;;;;;;10.99;71.09;99689.06;5078103;28;20028;-78
2022/09/28 04:58:31;;;;;;;0.20;0.20;;;;;;;10.98;71.59;99701.44;5085064;28;20036;-78
2022/09/28 05:00:59;;;;;;;0.10;0.10;;;;;;;11.02;71.18;99696.03;5079178;28;20540;-79
2022/09/28 05:03:26;;;;;;;0.10;0.10;;;;;;;10.99;70.79;99695.22;5075199;28;20101;-79
2022/09/28 05:05:52;;;;;;;0.20;0.20;;;;;;;10.97;71.08;99697.06;5083849;28;20012;-79
2022/09/28 05:08:18;;;;;;;0.20;0.20;;;;;;;11.00;70.98;99702.25;5075076;28;20047;-79
2022/09/28 05:10:44;;;;;;;0.10;0.10;;;;;;;10.99;71.50;99694.34;5085348;28;20069;-78
2022/09/28 05:13:12;;;;;;;0.10;0.10;;;;;;;11.02;71.07;99691.59;5080458;28;20469;-78
2022/09/28 05:15:40;;;;;;;0.10;0.10;;;;;;;11.06;71.14;99692.34;5078420;28;20028;-79
2022/09/28 05:18:07;;;;;;;0.10;0.10;;;;;;;11.10;71.56;99692.16;5061671;28;20032;-78
2022/09/28 05:20:39;;;;;;;0.10;0.10;;;;;;;11.12;71.44;99700.03;5086175;28;20075;-78
2022/09/28 05:23:05;;;;;;;0.20;0.20;;;;;;;11.12;71.00;99700.88;5082247;28;20392;-78
2022/09/28 05:25:32;;;;;;;0.10;0.10;;;;;;;11.12;71.22;99697.38;5080423;28;20024;-78
2022/09/28 05:28:00;;;;;;;0.10;0.10;;;;;;;11.13;71.33;99702.63;5077019;28;20041;-79
2022/09/28 05:30:26;;;;;;;0.10;0.10;;;;;;;11.11;71.20;99704.47;5076380;28;20039;-78
2022/09/28 05:32:52;;;;;;;0.10;0.10;;;;;;;11.11;71.01;99706.25;5072497;28;20032;-79
2022/09/28 05:35:19;;;;;;;0.10;0.10;;;;;;;11.11;70.96;99698.31;5085512;28;20128;-78
2022/09/28 05:37:45;;;;;;;0.10;0.10;;;;;;;11.11;70.90;99704.47;5083810;28;20032;-79
2022/09/28 05:40:12;;;;;;;0.10;0.10;;;;;;;11.14;71.13;99700.81;5071573;28;20033;-78
2022/09/28 05:42:39;;;;;;;0.10;0.10;;;;;;;11.17;71.00;99698.91;5073295;28;20028;-79
2022/09/28 05:45:06;;;;;;;0.17;0.17;;;;;;;11.20;71.04;99703.22;5072718;28;20023;-78
2022/09/28 05:47:37;;;;;;;0.10;0.10;;;;;;;11.27;71.02;99710.00;5073493;28;20020;-79
2022/09/28 05:50:04;;;;;;;0.10;0.10;;;;;;;11.26;71.62;99700.31;5072926;28;20045;-78
2022/09/28 05:52:30;;;;;;;0.10;0.10;;;;;;;11.31;71.47;99698.38;5077545;28;20036;-78
2022/09/28 05:54:56;;;;;;;0.20;0.20;;;;;;;11.40;71.39;99693.59;5080670;28;20043;-79
2022/09/28 05:57:22;;;;;;;0.10;0.10;;;;;;;11.48;71.48;99694.13;5086274;28;20028;-79
2022/09/28 05:59:48;;;;;;;0.10;0.10;;;;;;;11.56;71.16;99699.97;5076632;28;20044;-79
2022/09/28 06:02:14;;;;;;;0.10;0.10;;;;;;;11.61;71.77;99703.31;5076213;28;20079;-78
2022/09/28 06:04:40;;;;;;;0.20;0.20;;;;;;;11.67;71.43;99702.16;5073094;28;20021;-78
2022/09/28 06:07:06;;;;;;;0.15;0.15;;;;;;;11.73;71.58;99703.72;5075583;28;20032;-78
2022/09/28 06:09:32;;;;;;;0.20;0.20;;;;;;;11.81;71.26;99698.91;5075730;28;20036;-78
2022/09/28 06:11:58;;;;;;;0.10;0.10;;;;;;;11.83;71.54;99705.03;5072782;28;20511;-79
2022/09/28 06:14:25;;;;;;;0.10;0.10;;;;;;;11.91;71.92;99700.25;5073814;28;20020;-79
2022/09/28 06:16:51;;;;;;;0.10;0.10;;;;;;;11.88;71.59;99699.53;5076242;28;20034;-78
2022/09/28 06:19:20;;;;;;;0.20;0.20;;;;;;;11.90;71.84;99690.56;5076955;28;20440;-78
2022/09/28 06:21:47;;;;;;;0.30;0.30;;;;;;;11.92;71.60;99694.00;5077797;28;20090;-79
2022/09/28 06:24:13;;;;;;;0.10;0.10;;;;;;;11.85;71.75;99695.22;5071778;28;20050;-78
2022/09/28 06:26:39;;;;;;;0.10;0.10;;;;;;;11.89;71.53;99691.50;5080688;28;20036;-78
2022/09/28 06:29:05;;;;;;;0.10;0.10;;;;;;;11.80;71.89;99697.19;5073280;28;20032;-78
2022/09/28 06:31:31;;;;;;;0.10;0.10;;;;;;;11.73;71.65;99704.56;5078577;28;20306;-78
2022/09/28 06:34:00;;;;;;;0.10;0.10;;;;;;;11.70;71.43;99701.16;5076340;28;20032;-78
2022/09/28 06:36:30;;;;;;;0.20;0.20;;;;;;;11.72;71.57;99710.78;5084817;28;20491;-78
2022/09/28 06:38:56;;;;;;;0.10;0.10;;;;;;;11.69;71.90;99716.25;5068927;28;20062;-78
2022/09/28 06:41:22;;;;;;;0.10;0.10;;;;;;;11.71;71.68;99708.22;5075099;28;20028;-78
2022/09/28 06:43:48;;;;;;;0.10;0.10;;;;;;;11.69;71.33;99710.06;5071140;28;20107;-78
2022/09/28 06:46:14;;;;;;;0.10;0.10;;;;;;;11.69;71.81;99715.34;5072494;28;20422;-79
2022/09/28 06:48:41;;;;;;;0.10;0.10;;;;;;;11.69;71.88;99716.25;5071343;28;20452;-79
2022/09/28 06:51:07;;;;;;;0.10;0.10;;;;;;;11.73;71.61;99716.97;5073240;28;20036;-79
2022/09/28 06:53:34;;;;;;;0.10;0.10;;;;;;;11.74;72.14;99722.22;5074402;28;20111;-79
2022/09/28 06:56:01;;;;;;;0.10;0.10;;;;;;;11.80;71.61;99729.91;5074246;28;20403;-79
2022/09/28 06:58:28;;;;;;;0.10;0.10;;;;;;;11.82;72.17;99727.19;5075941;28;20492;-79
2022/09/28 07:00:58;;;;;;;0.10;0.10;;;;;;;11.89;71.98;99728.66;5072345;28;20031;-79
2022/09/28 07:03:24;;;;;;;0.10;0.10;;;;;;;11.86;72.05;99727.91;5072119;28;20115;-79
2022/09/28 07:05:53;;;;;;;0.10;0.10;;;;;;;11.92;72.25;99733.81;5078712;28;20039;-78
2022/09/28 07:08:23;;;;;;;0.10;0.10;;;;;;;11.96;71.84;99737.22;5078105;28;20032;-79
2022/09/28 07:10:57;;;;;;;0.10;0.10;;;;;;;11.98;71.54;99736.22;5077442;28;20032;-78
2022/09/28 07:13:27;;;;;;;0.10;0.10;;;;;;;12.03;71.81;99741.34;5082410;28;20039;-78
2022/09/28 07:15:54;;;;;;;0.10;0.10;;;;;;;12.13;71.77;99736.50;5078402;28;20479;-78
2022/09/28 07:18:22;;;;;;;0.10;0.10;;;;;;;12.16;71.91;99751.44;5072688;28;20558;-79
2022/09/28 07:20:48;;;;;;;0.15;0.15;;;;;;;12.16;71.72;99736.34;5067521;28;20021;-79
2022/09/28 07:23:14;;;;;;;0.30;0.30;;;;;;;12.21;72.10;99746.78;5077730;28;20475;-78
2022/09/28 07:25:44;;;;;;;0.10;0.10;;;;;;;12.21;71.76;99739.69;5074239;28;20048;-79
2022/09/28 07:28:11;;;;;;;0.10;0.10;;;;;;;12.22;72.42;99744.03;5072344;28;20041;-78
2022/09/28 07:30:37;;;;;;;0.10;0.10;;;;;;;12.27;71.83;99749.16;5070061;28;20040;-78
2022/09/28 07:33:05;;;;;;;0.75;0.75;;;;;;;12.33;72.09;99743.56;5074331;28;20162;-79
2022/09/28 07:35:33;;;;;;;0.10;0.10;;;;;;;12.43;71.96;99750.19;5070612;28;20021;-79
2022/09/28 07:38:02;;;;;;;0.10;0.10;;;;;;;12.49;72.05;99754.38;5074196;28;20039;-79
2022/09/28 07:43:19;;;;;;;0.10;0.10;;;;;;;12.56;71.84;99761.13;5067935;28;20037;-79
2022/09/28 07:45:46;;;;;;;0.10;0.10;;;;;;;12.60;71.73;99761.88;5070192;28;20024;-79
2022/09/28 07:48:17;;;;;;;0.10;0.10;;;;;;;12.67;71.91;99773.06;5071426;28;20029;-79
2022/09/28 07:50:52;;;;;;;0.20;0.20;;;;;;;12.72;71.69;99773.72;5067841;28;20037;-78
2022/09/28 07:53:23;;;;;;;0.10;0.10;;;;;;;12.74;71.01;99775.34;5070519;28;20032;-78
2022/09/28 07:55:52;;;;;;;0.10;0.10;;;;;;;12.72;70.75;99771.06;5072202;28;20025;-78
2022/09/28 07:58:19;;;;;;;0.20;0.20;;;;;;;12.81;71.28;99767.09;5069063;28;20032;-79
2022/09/28 08:00:47;;;;;;;0.10;0.10;;;;;;;12.83;70.88;99766.09;5068859;28;20028;-79
2022/09/28 08:03:14;;;;;;;0.10;0.10;;;;;;;12.98;71.18;99771.63;5073460;28;20428;-81
2022/09/28 08:05:41;;;;;;;0.10;0.10;;;;;;;13.00;70.92;99769.78;5072604;28;20407;-79
2022/09/28 08:08:08;;;;;;;0.10;0.10;;;;;;;13.10;70.85;99771.91;5082580;28;20047;-79
2022/09/28 08:10:34;;;;;;;0.20;0.20;;;;;;;13.10;70.83;99781.69;5075514;28;20557;-79
2022/09/28 08:13:01;;;;;;;0.10;0.10;;;;;;;13.13;70.67;99775.38;5076255;28;20044;-79
2022/09/28 08:15:28;;;;;;;0.10;0.10;;;;;;;13.23;70.60;99780.19;5076361;28;20094;-78
2022/09/28 08:17:54;;;;;;;0.10;0.10;;;;;;;13.30;70.26;99778.06;5087445;28;20109;-78
2022/09/28 08:23:08;;;;;;;0.10;0.10;;;;;;;13.44;69.76;99780.09;5073639;28;20043;-78
2022/09/28 08:25:37;;;;;;;0.15;0.15;;;;;;;13.51;69.81;99783.34;5076702;28;20110;-79
2022/09/28 08:28:05;;;;;;;0.10;0.10;;;;;;;13.58;69.92;99782.06;5075910;28;20103;-78
2022/09/28 08:30:31;;;;;;;0.10;0.10;;;;;;;13.61;69.51;99783.72;5075227;28;20121;-78
2022/09/28 08:32:58;;;;;;;0.10;0.10;;;;;;;13.77;69.48;99784.69;5074818;28;20033;-78
2022/09/28 08:35:24;;;;;;;0.10;0.10;;;;;;;13.88;69.33;99787.66;5086689;28;20081;-78
2022/09/28 08:37:52;;;;;;;0.20;0.20;;;;;;;13.90;68.25;99788.44;5081507;28;20024;-78
2022/09/28 08:40:23;;;;;;;0.10;0.10;;;;;;;14.03;68.58;99787.81;5074500;28;20064;-79
2022/09/28 08:42:53;;;;;;;0.30;0.30;;;;;;;14.09;68.75;99792.81;5070164;28;20483;-78
2022/09/28 08:45:26;;;;;;;0.20;0.20;;;;;;;14.13;67.66;99794.41;5079172;28;20032;-78
2022/09/28 08:50:48;;;;;;;0.17;0.17;;;;;;;14.31;67.17;99800.56;5104604;27;20775;-78
2022/09/28 08:53:35;;;;;;;0.10;0.10;;;;;;;14.43;66.83;99801.75;5088428;28;20024;-79
2022/09/28 08:56:06;;;;;;;0.10;0.10;;;;;;;14.47;67.02;99802.44;5089715;28;20059;-78
2022/09/28 08:58:37;;;;;;;0.10;0.10;;;;;;;14.57;67.39;99807.19;5089680;28;20024;-79
2022/09/28 09:01:07;;;;;;;0.10;0.10;;;;;;;14.64;66.26;99809.53;5087404;28;20021;-78
2022/09/28 09:03:40;;;;;;;0.10;0.10;;;;;;;14.74;66.20;99810.78;5086341;28;20523;-78
2022/09/28 09:06:46;;;;;;;0.10;0.10;;;;;;;14.91;64.80;99801.03;5089506;28;20772;-79
2022/09/28 09:09:46;;;;;;;0.10;0.10;;;;;;;15.02;65.21;99810.13;5097309;28;20023;-78
2022/09/28 09:23:42;;;;;;;0.10;0.10;;;;;;;15.74;63.04;99812.34;5086596;27;20409;-79
2022/09/28 09:26:33;;;;;;;0.10;0.10;;;;;;;15.92;61.14;99809.59;5082516;28;20066;-79
2022/09/28 09:29:25;;;;;;;0.10;0.10;;;;;;;15.99;61.39;99808.28;5087533;28;20047;-79
2022/09/28 09:32:19;;;;;;;0.13;0.13;;;;;;;16.12;60.15;99803.06;5086960;28;20111;-79
2022/09/28 09:40:39;;;;;;;0.10;0.10;;;;;;;15.96;58.69;99813.78;5082754;27;20415;-79
2022/09/28 09:43:45;;;;;;;0.10;0.10;;;;;;;15.81;60.22;99813.72;5051088;28;20029;-78
2022/09/28 09:49:19;;;;;;;0.10;0.10;;;;;;;15.68;59.98;99823.41;5060229;28;20415;-78
2022/09/28 09:52:08;;;;;;;0.10;0.10;;;;;;;15.57;60.33;99831.16;5042426;28;20029;-79
2022/09/28 09:54:39;;;;;;;0.10;0.10;;;;;;;15.55;61.29;99822.38;5040230;28;20519;-79
2022/09/28 09:57:14;;;;;;;0.25;0.25;;;;;;;15.53;60.33;99830.47;5043454;28;20037;-79
2022/09/28 09:59:43;;;;;;;0.10;0.10;;;;;;;15.56;61.68;99818.75;5041809;28;20025;-79
2022/09/28 10:08:14;;;;;;;0.10;0.10;;;;;;;15.73;59.08;99825.81;5105090;27;20430;-79
2022/09/28 10:10:51;;;;;;;0.13;0.13;;;;;;;15.82;59.04;99823.47;5103307;28;20035;-79
2022/09/28 10:13:17;;;;;;;0.17;0.17;;;;;;;15.85;59.44;99825.13;5101111;28;20517;-79
2022/09/28 10:15:46;;;;;;;0.10;0.10;;;;;;;15.97;59.34;99823.53;5092495;28;20036;-79
2022/09/28 10:18:15;;;;;;;0.00;0.00;;;;;;;16.06;57.51;99824.78;5095535;28;20036;-80
2022/09/28 10:20:44;;;;;;;0.10;0.10;;;;;;;16.09;58.42;99830.81;5087549;28;20051;-80
2022/09/28 10:23:28;;;;;;;0.10;0.10;;;;;;;16.30;57.51;99814.47;5087773;28;20024;-80
2022/09/28 10:26:02;;;;;;;0.20;0.20;;;;;;;16.47;59.00;99824.13;5093771;28;20075;-79
2022/09/28 10:28:39;;;;;;;1.10;1.00;;;;;;;16.58;57.96;99824.31;5086765;28;20089;-79
2022/09/28 10:31:42;;;;;;;0.10;0.10;;;;;;;16.84;57.47;99816.50;5090237;28;20537;-80
2022/09/28 10:34:15;;;;;;;0.17;0.17;;;;;;;16.81;56.52;99822.91;5089089;28;20028;-80
2022/09/28 10:37:02;;;;;;;0.10;0.10;;;;;;;16.86;56.53;99824.41;5088472;28;20050;-80
2022/09/28 10:39:53;;;;;;;0.10;0.10;;;;;;;16.79;56.67;99819.44;5092146;28;20024;-80
2022/09/28 10:42:25;;;;;;;0.10;0.10;;;;;;;16.81;56.87;99822.06;5091784;28;20039;-79
2022/09/28 10:45:03;;;;;;;0.10;0.10;;;;;;;16.90;55.91;99817.94;5089585;28;20119;-79
2022/09/28 10:47:31;;;;;;;0.10;0.10;;;;;;;16.91;56.39;99812.53;5089460;28;20031;-82
2022/09/28 10:49:59;;;;;;;0.00;0.00;;;;;;;17.06;58.14;99825.88;5094796;28;20523;-80
2022/09/28 10:52:36;;;;;;;0.10;0.10;;;;;;;17.14;54.73;99821.75;5098687;28;20028;-79
2022/09/28 10:55:23;;;;;;;0.10;0.10;;;;;;;17.20;55.40;99819.66;5096112;28;20036;-78
2022/09/28 10:57:49;;;;;;;0.10;0.10;;;;;;;17.38;57.18;99822.94;5099693;28;20024;-79
2022/09/28 11:00:40;;;;;;;0.10;0.10;;;;;;;17.52;54.28;99814.00;5111103;28;20102;-79
2022/09/28 11:03:28;;;;;;;0.10;0.10;;;;;;;17.70;53.32;99812.81;5104808;28;20026;-79
2022/09/28 11:06:02;;;;;;;0.10;0.10;;;;;;;17.88;53.08;99815.22;5076742;28;20020;-79
2022/09/28 11:08:34;;;;;;;0.10;0.10;;;;;;;17.93;51.23;99810.41;5089146;28;20036;-79
2022/09/28 11:11:03;;;;;;;0.10;0.10;;;;;;;18.03;53.30;99808.00;5103324;28;20498;-80
2022/09/28 11:13:29;;;;;;;0.10;0.10;;;;;;;18.01;51.64;99810.78;5090826;28;20032;-79
2022/09/28 11:15:56;;;;;;;0.10;0.10;;;;;;;18.17;52.96;99799.00;5089996;28;20030;-80
2022/09/28 11:18:31;;;;;;;0.10;0.10;;;;;;;18.43;51.88;99800.75;5087919;28;20025;-79
2022/09/28 11:21:20;;;;;;;0.10;0.10;;;;;;;18.72;50.40;99805.91;5070266;28;20093;-80
2022/09/28 11:26:41;;;;;;;0.10;0.10;;;;;;;18.98;49.74;99795.16;5109549;27;20376;-78
2022/09/28 11:29:21;;;;;;;0.10;0.10;;;;;;;19.07;49.21;99799.84;5104111;27;20024;-80
2022/09/28 11:31:47;;;;;;;0.00;0.00;;;;;;;19.04;51.21;99792.03;5091141;28;20107;-79
2022/09/28 11:34:21;;;;;;;0.10;0.10;;;;;;;19.00;49.39;99803.94;5092197;28;20024;-79
2022/09/28 11:45:31;;;;;;;0.10;0.10;;;;;;;18.51;51.57;99794.00;5068651;28;20844;-80
2022/09/28 11:48:04;;;;;;;0.10;0.10;;;;;;;18.28;51.66;99799.16;5052703;28;20051;-79
2022/09/28 11:53:34;;;;;;;0.10;0.10;;;;;;;18.18;53.86;99800.72;5092984;27;20478;-79
2022/09/28 11:56:15;;;;;;;0.20;0.20;;;;;;;18.07;54.73;99810.38;5090441;28;20403;-79
2022/09/28 11:58:47;;;;;;;0.10;0.10;;;;;;;17.96;54.37;99807.56;5071200;28;20037;-79
2022/09/28 12:01:40;;;;;;;0.10;0.10;;;;;;;17.89;53.00;99806.22;5077194;28;20060;-79
2022/09/28 12:04:17;;;;;;;0.10;0.10;;;;;;;17.71;50.46;99809.16;5098758;28;20039;-79
2022/09/28 12:06:51;;;;;;;0.10;0.10;;;;;;;17.65;54.89;99806.91;5097611;28;20024;-80
2022/09/28 12:09:29;;;;;;;0.10;0.10;;;;;;;17.43;56.46;99820.84;5104767;28;20035;-79
2022/09/28 12:12:01;;;;;;;0.10;0.10;;;;;;;17.09;55.93;99834.56;5092154;28;20031;-79
2022/09/28 12:14:32;;;;;;;0.10;0.10;;;;;;;16.44;56.74;99843.88;5099410;28;20499;-79
2022/09/28 12:17:13;;;;;;;0.10;0.10;;;;;;;15.40;53.03;99873.00;5088361;28;20040;-78
2022/09/28 12:19:51;;;;;;;0.10;0.10;;;;;;;13.68;51.55;99886.28;5094038;28;20051;-78
2022/09/28 12:22:23;;;;;;;0.20;0.20;;;;;;;12.35;52.54;99873.66;5094785;28;20024;-79
2022/09/28 12:24:53;;;;;;;0.20;0.20;;;;;;;11.36;56.12;99873.19;5102954;28;20028;-79
2022/09/28 12:27:43;;;;;;;0.20;0.20;;;;;;;10.95;57.79;99867.69;5090680;28;20107;-79
2022/09/28 12:30:18;;;;;;;0.85;0.85;;;;;;;10.52;55.63;99862.16;5097108;28;20027;-79
2022/09/28 12:35:46;;;;;;;0.10;0.10;;;;;;;10.39;59.29;99856.41;5079647;27;1864952;-79
2022/09/28 12:41:05;;;;;;;0.10;0.10;;;;;;;10.78;62.72;99861.22;5096736;27;20382;-79
2022/09/28 12:46:31;;;;;;;0.10;0.10;;;;;;;11.21;66.34;99849.94;5073586;28;20410;-79
2022/09/28 12:51:47;;;;;;;0.20;0.20;;;;;;;11.46;69.45;99852.47;5105230;27;20358;-79
2022/09/28 13:00:10;;;;;;;0.10;0.10;;;;;;;11.89;68.66;99861.38;5124409;27;20417;-80
2022/09/28 13:03:10;;;;;;;0.10;0.10;;;;;;;12.01;69.33;99875.09;5123418;28;20110;-82
2022/09/28 13:11:54;;;;;;;0.20;0.20;;;;;;;12.21;67.50;99883.09;5070985;28;20391;-79
2022/09/28 13:17:11;;;;;;;0.10;0.10;;;;;;;12.30;67.96;99882.69;5102428;27;20395;-80
2022/09/28 13:22:41;;;;;;;0.10;0.10;;;;;;;12.32;67.76;99900.34;5053487;28;20482;-79
2022/09/28 13:25:15;;;;;;;0.10;0.10;;;;;;;12.43;68.11;99898.09;5051201;28;20041;-79
2022/09/28 13:27:49;;;;;;;0.20;0.20;;;;;;;12.43;68.16;99904.25;5047673;28;20258;-79
2022/09/28 13:30:18;;;;;;;0.10;0.10;;;;;;;12.43;69.23;99903.41;5046443;28;20029;-80
2022/09/28 13:32:47;;;;;;;0.10;0.10;;;;;;;12.43;70.64;99914.03;5049317;28;20034;-80
2022/09/28 13:35:18;;;;;;;0.20;0.20;;;;;;;12.50;69.85;99899.56;5050510;28;20025;-79
2022/09/28 13:37:45;;;;;;;0.15;0.15;;;;;;;12.53;70.15;99907.41;5043454;28;20025;-79
2022/09/28 13:40:12;;;;;;;0.10;0.10;;;;;;;12.48;70.13;99916.50;5049853;28;20040;-79